Time;durP1;ratioP1;P1;durP2;ratioP2;P2;SDS_P1;SDS_P2;PMS_P1;PMS_P2;Temp;Humidity;BMP_temperature;BMP_pressure;BME280_temperature;BME280_humidity;BME280_pressure;Samples;Min_cycle;Max_cycle;Signal;HPM_P1;HPM_P2
2022/05/02 00:01:17;;;;;;;2.33;1.40;;;;;;;14.70;60.12;99244.88;5154204;27;20182;-83
2022/05/02 00:03:42;;;;;;;4.97;1.47;;;;;;;14.60;60.23;99247.25;5154373;27;20162;-83
2022/05/02 00:06:08;;;;;;;3.33;1.60;;;;;;;14.58;60.46;99251.81;5154638;27;20166;-83
2022/05/02 00:08:33;;;;;;;3.90;1.50;;;;;;;14.49;60.49;99247.13;5154320;27;20649;-83
2022/05/02 00:10:59;;;;;;;2.33;1.50;;;;;;;14.50;60.85;99245.34;5153314;27;20533;-83
2022/05/02 00:13:24;;;;;;;6.97;2.00;;;;;;;14.40;60.76;99244.28;5154178;27;20187;-83
2022/05/02 00:15:50;;;;;;;3.33;1.70;;;;;;;14.41;60.52;99246.78;5153587;27;20174;-83
2022/05/02 00:18:15;;;;;;;3.07;1.70;;;;;;;14.32;61.00;99249.22;5157958;27;20191;-83
2022/05/02 00:20:41;;;;;;;4.00;1.80;;;;;;;14.17;61.02;99251.03;5157876;27;20235;-83
2022/05/02 00:23:10;;;;;;;2.50;1.33;;;;;;;14.13;61.35;99244.25;5158152;27;20178;-83
2022/05/02 00:25:35;;;;;;;4.30;1.60;;;;;;;14.13;60.75;99244.25;5157794;27;20538;-83
2022/05/02 00:28:02;;;;;;;2.67;1.30;;;;;;;14.15;60.95;99245.84;5157253;27;20192;-83
2022/05/02 00:30:28;;;;;;;3.60;1.53;;;;;;;14.23;60.81;99242.72;5157765;27;20177;-83
2022/05/02 00:32:55;;;;;;;3.87;1.43;;;;;;;14.33;59.59;99227.19;5157620;27;20760;-83
2022/05/02 00:35:20;;;;;;;2.80;1.50;;;;;;;14.26;59.74;99212.66;5156695;27;20642;-83
2022/05/02 00:37:47;;;;;;;2.40;1.40;;;;;;;14.07;60.72;99216.50;5156636;27;20178;-83
2022/05/02 00:40:14;;;;;;;3.73;1.53;;;;;;;13.97;61.00;99211.94;5157542;27;20178;-83
2022/05/02 00:42:43;;;;;;;2.17;1.40;;;;;;;13.89;61.67;99212.44;5157512;27;20174;-83
2022/05/02 00:45:10;;;;;;;4.70;1.43;;;;;;;13.92;61.78;99206.97;5157418;27;20249;-83
2022/05/02 00:47:36;;;;;;;4.13;1.70;;;;;;;13.91;62.16;99212.34;5157657;27;20185;-83
2022/05/02 00:50:07;;;;;;;2.93;1.50;;;;;;;13.91;61.80;99215.00;5156405;27;20181;-83
2022/05/02 00:52:33;;;;;;;2.70;1.40;;;;;;;13.95;61.62;99212.03;5157499;27;20256;-83
2022/05/02 00:55:00;;;;;;;3.30;1.57;;;;;;;14.01;61.20;99206.38;5156303;27;20177;-83
2022/05/02 00:57:25;;;;;;;1.73;1.20;;;;;;;14.03;61.18;99204.50;5157221;27;20218;-83
2022/05/02 00:59:51;;;;;;;9.77;2.93;;;;;;;13.95;61.76;99204.13;5157688;27;20178;-83
2022/05/02 01:02:17;;;;;;;4.07;1.80;;;;;;;13.79;62.61;99202.59;5156933;27;20204;-83
2022/05/02 01:04:43;;;;;;;6.03;1.70;;;;;;;13.70;63.07;99209.31;5156098;27;20671;-83
2022/05/02 01:07:10;;;;;;;4.10;1.70;;;;;;;13.61;64.15;99207.25;5157063;27;20546;-83
2022/05/02 01:09:47;;;;;;;5.67;2.10;;;;;;;13.59;63.95;99205.66;5156981;27;20265;-83
2022/05/02 01:12:15;;;;;;;3.50;2.10;;;;;;;13.59;64.54;99203.88;5157176;27;20173;-82
2022/05/02 01:14:42;;;;;;;4.00;1.93;;;;;;;13.66;64.50;99210.44;5155902;27;20188;-82
2022/05/02 01:17:09;;;;;;;3.07;1.60;;;;;;;13.70;64.45;99211.09;5156828;27;20166;-82
2022/05/02 01:19:34;;;;;;;4.37;2.23;;;;;;;13.57;64.86;99206.59;5155784;27;20509;-82
2022/05/02 01:22:01;;;;;;;3.20;1.90;;;;;;;13.57;64.92;99210.19;5156714;27;20193;-83
2022/05/02 01:24:52;;;;;;;5.20;2.70;;;;;;;13.46;65.58;99210.88;5156698;27;20178;-83
2022/05/02 01:27:17;;;;;;;3.60;1.60;;;;;;;13.45;64.83;99214.44;5151023;27;20194;-83
2022/05/02 01:29:45;;;;;;;4.03;1.63;;;;;;;13.44;63.97;99207.50;5156540;27;20169;-83
2022/05/02 01:32:14;;;;;;;7.53;2.00;;;;;;;13.43;63.44;99198.75;5156425;27;20166;-82
2022/05/02 01:34:40;;;;;;;3.20;1.90;;;;;;;13.48;62.91;99195.81;5156442;27;20206;-83
2022/05/02 01:37:07;;;;;;;3.43;2.00;;;;;;;13.52;62.39;99192.06;5156450;27;20273;-83
2022/05/02 01:39:32;;;;;;;4.90;1.80;;;;;;;13.54;62.00;99180.47;5155425;27;20180;-83
2022/05/02 01:42:03;;;;;;;5.87;2.70;;;;;;;13.46;61.91;99177.47;5155338;27;20193;-83
2022/05/02 01:44:29;;;;;;;4.27;1.60;;;;;;;13.34;62.57;99172.97;5156536;27;20257;-83
2022/05/02 01:46:54;;;;;;;11.37;2.17;;;;;;;13.28;62.51;99169.91;5156220;27;20256;-83
2022/05/02 01:49:20;;;;;;;4.10;2.13;;;;;;;13.23;62.32;99166.72;5156195;27;20609;-83
2022/05/02 01:51:46;;;;;;;2.90;1.73;;;;;;;13.20;62.54;99164.28;5156372;27;20186;-83
2022/05/02 01:54:11;;;;;;;3.90;1.93;;;;;;;13.19;62.08;99162.56;5156267;27;20202;-83
2022/05/02 01:56:37;;;;;;;5.43;2.40;;;;;;;13.10;62.18;99168.44;5155062;27;20180;-83
2022/05/02 01:59:04;;;;;;;3.77;1.60;;;;;;;13.04;62.32;99168.75;5155987;27;20204;-83
2022/05/02 02:01:30;;;;;;;3.43;1.43;;;;;;;13.01;62.05;99156.66;5155777;27;20687;-83
2022/05/02 02:03:58;;;;;;;2.33;1.30;;;;;;;12.98;62.04;99155.97;5155877;27;20515;-83
2022/05/02 02:06:23;;;;;;;3.13;1.70;;;;;;;12.98;61.61;99150.72;5155814;27;20170;-83
2022/05/02 02:08:50;;;;;;;3.43;1.70;;;;;;;12.92;61.55;99147.53;5156344;27;20192;-83
2022/05/02 02:11:15;;;;;;;3.43;1.80;;;;;;;12.92;62.24;99133.53;5155754;27;20219;-83
2022/05/02 02:13:41;;;;;;;5.03;2.20;;;;;;;12.92;62.09;99134.38;5155626;27;20675;-83
2022/05/02 02:16:09;;;;;;;4.97;1.93;;;;;;;12.88;61.82;99138.16;5155928;27;20592;-83
2022/05/02 02:18:37;;;;;;;4.37;1.67;;;;;;;12.73;61.94;99138.25;5155928;27;20173;-83
2022/05/02 02:21:02;;;;;;;5.00;1.83;;;;;;;12.70;62.50;99131.38;5155887;27;20177;-83
2022/05/02 02:23:28;;;;;;;3.63;1.97;;;;;;;12.63;62.67;99129.22;5154549;27;20233;-83
2022/05/02 02:25:54;;;;;;;13.90;2.57;;;;;;;12.58;62.89;99128.66;5155531;27;20174;-83
2022/05/02 02:28:20;;;;;;;5.07;2.37;;;;;;;12.50;63.13;99125.66;5155470;27;20532;-83
2022/05/02 02:30:45;;;;;;;3.03;1.70;;;;;;;12.47;63.33;99124.06;5154459;27;20211;-83
2022/05/02 02:33:12;;;;;;;5.13;2.30;;;;;;;12.36;63.66;99115.97;5154316;27;20650;-83
2022/05/02 02:35:37;;;;;;;3.97;2.30;;;;;;;12.27;64.09;99119.97;5154314;27;20542;-83
2022/05/02 02:38:03;;;;;;;6.43;2.47;;;;;;;12.27;63.67;99117.34;5155273;27;20170;-83
2022/05/02 02:40:30;;;;;;;5.43;2.37;;;;;;;12.34;63.64;99115.22;5154751;27;20530;-83
2022/05/02 02:42:55;;;;;;;4.97;2.00;;;;;;;12.32;63.62;99111.81;5155227;27;20168;-83
2022/05/02 02:45:21;;;;;;;5.40;2.13;;;;;;;12.31;63.22;99115.41;5154149;27;20240;-83
2022/05/02 02:47:46;;;;;;;2.87;1.67;;;;;;;12.21;63.37;99117.72;5155131;27;20210;-83
2022/05/02 02:50:12;;;;;;;3.23;2.10;;;;;;;12.21;63.57;99120.34;5155100;27;20185;-82
2022/05/02 02:52:37;;;;;;;5.50;1.97;;;;;;;12.18;64.17;99123.16;5154028;27;20226;-84
2022/05/02 02:55:04;;;;;;;3.67;1.80;;;;;;;12.10;64.12;99135.91;5155077;27;20164;-84
2022/05/02 02:57:29;;;;;;;3.23;1.73;;;;;;;12.09;64.11;99135.97;5154030;27;20191;-83
2022/05/02 02:59:55;;;;;;;4.57;2.47;;;;;;;12.12;63.34;99141.06;5154995;27;20178;-83
2022/05/02 03:02:21;;;;;;;3.20;1.93;;;;;;;12.08;63.41;99144.81;5153824;27;20223;-83
2022/05/02 03:07:31;;;;;;;4.30;2.00;;;;;;;12.01;63.26;99138.22;5155792;27;20177;-83
2022/05/02 03:09:58;;;;;;;11.67;2.50;;;;;;;12.01;63.52;99144.31;5155215;27;20265;-83
2022/05/02 03:12:24;;;;;;;4.60;2.40;;;;;;;11.93;63.65;99143.06;5153829;27;20263;-83
2022/05/02 03:14:49;;;;;;;3.57;1.67;;;;;;;11.91;63.67;99137.06;5153896;27;20621;-83
2022/05/02 03:17:15;;;;;;;5.07;2.40;;;;;;;11.84;63.89;99139.22;5154882;27;20536;-83
2022/05/02 03:19:41;;;;;;;4.33;1.90;;;;;;;11.84;63.57;99135.72;5153818;27;20540;-83
2022/05/02 03:22:06;;;;;;;5.03;2.53;;;;;;;11.75;63.63;99141.50;5155332;27;20179;-83
2022/05/02 03:24:32;;;;;;;7.50;2.37;;;;;;;11.77;64.15;99144.88;5154697;27;20195;-83
2022/05/02 03:26:58;;;;;;;6.67;2.33;;;;;;;11.76;63.99;99145.81;5154716;27;20181;-83
2022/05/02 03:29:24;;;;;;;4.03;1.90;;;;;;;11.72;64.46;99142.50;5153734;27;20175;-83
2022/05/02 03:31:49;;;;;;;5.27;2.53;;;;;;;11.76;64.10;99144.06;5154671;27;20253;-83
2022/05/02 03:34:14;;;;;;;5.63;2.20;;;;;;;11.79;64.23;99143.03;5153582;27;20208;-83
2022/05/02 03:36:40;;;;;;;4.40;2.20;;;;;;;11.84;63.90;99147.09;5154602;27;20197;-83
2022/05/02 03:39:05;;;;;;;3.70;2.07;;;;;;;11.97;63.56;99144.59;5153634;27;20648;-83
2022/05/02 03:41:31;;;;;;;3.83;1.83;;;;;;;11.87;63.75;99138.19;5154884;27;20179;-83
2022/05/02 03:43:56;;;;;;;4.90;2.00;;;;;;;11.85;63.89;99143.50;5154547;27;20502;-83
2022/05/02 03:46:22;;;;;;;5.00;2.17;;;;;;;11.92;64.20;99149.28;5154837;27;20231;-83
2022/05/02 03:48:47;;;;;;;6.70;2.50;;;;;;;11.94;64.54;99148.25;5154564;27;20182;-83
2022/05/02 03:51:13;;;;;;;3.60;2.17;;;;;;;11.95;65.08;99131.53;5155440;27;20163;-84
2022/05/02 03:53:38;;;;;;;4.20;2.47;;;;;;;12.05;64.97;99134.50;5158941;27;20199;-84
2022/05/02 03:56:04;;;;;;;6.17;3.03;;;;;;;12.05;65.61;99131.84;5158976;27;20185;-84
2022/05/02 03:58:30;;;;;;;7.03;2.47;;;;;;;12.03;66.26;99128.44;5158682;27;20178;-84
2022/05/02 04:00:56;;;;;;;11.47;2.77;;;;;;;11.99;66.42;99129.59;5158358;27;20171;-84
2022/05/02 04:03:21;;;;;;;15.30;2.77;;;;;;;12.08;66.28;99134.31;5157220;27;20247;-83
2022/05/02 04:05:47;;;;;;;6.53;2.97;;;;;;;12.08;66.77;99129.06;5158257;27;20257;-83
2022/05/02 04:08:12;;;;;;;10.30;2.90;;;;;;;12.12;66.91;99127.94;5157168;27;20616;-83
2022/05/02 04:10:37;;;;;;;13.17;3.43;;;;;;;12.17;67.14;99120.63;5157161;27;20174;-83
2022/05/02 04:13:03;;;;;;;4.80;2.67;;;;;;;12.30;66.92;99121.59;5158051;27;20195;-83
2022/05/02 04:15:28;;;;;;;7.23;3.77;;;;;;;12.46;66.47;99119.72;5080067;27;20351;-83
2022/05/02 04:17:58;;;;;;;8.90;3.43;;;;;;;12.60;66.25;99116.25;5045100;28;20178;-83
2022/05/02 04:20:24;;;;;;;7.77;3.83;;;;;;;12.70;66.87;99123.50;5052729;28;20534;-83
2022/05/02 04:22:50;;;;;;;5.77;3.33;;;;;;;12.80;67.45;99119.34;5052667;28;20247;-83
2022/05/02 04:25:15;;;;;;;8.27;3.13;;;;;;;12.89;67.46;99117.94;5051700;28;20562;-83
2022/05/02 04:27:41;;;;;;;4.30;2.67;;;;;;;12.97;68.12;99120.91;5038627;28;20220;-83
2022/05/02 04:30:08;;;;;;;46.87;20.80;;;;;;;13.04;67.48;99110.88;5031664;28;20189;-83
2022/05/02 04:32:33;;;;;;;84.43;33.53;;;;;;;13.17;67.61;99102.16;5032460;28;20671;-83
2022/05/02 04:34:59;;;;;;;18.43;5.77;;;;;;;13.36;67.22;99110.53;5032864;28;20194;-83
2022/05/02 04:37:25;;;;;;;12.63;4.90;;;;;;;13.52;66.54;99102.53;5031585;28;20181;-83
2022/05/02 04:39:53;;;;;;;9.57;3.90;;;;;;;13.68;66.44;99103.19;5031557;28;20224;-83
2022/05/02 04:42:18;;;;;;;10.00;4.27;;;;;;;13.95;65.38;99106.63;5031505;28;20251;-81
2022/05/02 04:44:44;;;;;;;6.40;3.50;;;;;;;14.09;66.23;99093.41;5032758;28;20640;-80
2022/05/02 04:47:09;;;;;;;8.23;3.57;;;;;;;14.20;66.34;99099.72;5031423;28;20200;-80
2022/05/02 04:49:35;;;;;;;6.23;3.30;;;;;;;14.32;66.95;99105.03;5057517;27;20189;-80
2022/05/02 04:52:00;;;;;;;8.47;3.53;;;;;;;14.52;66.47;99108.94;5107756;27;20200;-80
2022/05/02 04:54:26;;;;;;;4.20;2.97;;;;;;;14.77;66.29;99111.56;5065815;27;20669;-80
2022/05/02 04:56:51;;;;;;;4.73;2.60;;;;;;;14.98;65.33;99104.78;5052095;28;20600;-81
2022/05/02 04:59:17;;;;;;;4.93;2.63;;;;;;;15.18;65.29;99117.41;5052027;28;20196;-81
2022/05/02 05:01:42;;;;;;;7.77;3.73;;;;;;;15.25;64.48;99113.34;5051444;28;20337;-80
2022/05/02 05:04:09;;;;;;;7.57;2.67;;;;;;;15.41;64.18;99122.84;5051019;28;20201;-85
2022/05/02 05:06:35;;;;;;;4.87;2.33;;;;;;;15.49;63.27;99121.34;5052221;28;20170;-85
2022/05/02 05:09:00;;;;;;;6.70;2.40;;;;;;;15.89;61.77;99114.81;5050947;28;20193;-85
2022/05/02 05:11:41;;;;;;;4.53;2.13;;;;;;;16.46;61.52;99120.13;5050958;28;20178;-81
2022/05/02 05:17:30;;;;;;;5.53;2.70;;;;;;;16.49;59.63;99116.41;5052097;28;20174;-84
2022/05/02 05:20:13;;;;;;;4.67;2.37;;;;;;;16.51;59.54;99114.47;5052056;28;20169;-83
2022/05/02 05:22:50;;;;;;;6.23;2.77;;;;;;;16.48;59.12;99117.38;5052273;28;20613;-83
2022/05/02 05:25:25;;;;;;;5.80;3.20;;;;;;;16.42;59.52;99126.63;5051603;28;20184;-83
2022/05/02 05:28:32;;;;;;;5.47;2.43;;;;;;;16.52;59.02;99125.00;5051896;28;20223;-83
2022/05/02 05:31:33;;;;;;;4.17;2.70;;;;;;;16.54;58.79;99132.81;5052198;28;20173;-83
2022/05/02 05:34:08;;;;;;;8.90;2.77;;;;;;;16.70;58.29;99140.41;5063416;27;20236;-83
2022/05/02 05:37:10;;;;;;;7.17;3.37;;;;;;;16.88;57.60;99136.31;5051769;28;20255;-83
2022/05/02 05:39:45;;;;;;;7.70;2.67;;;;;;;16.83;57.40;99134.03;5037780;27;20192;-83
2022/05/02 05:43:04;;;;;;;7.63;3.73;;;;;;;16.79;57.14;99137.06;5031488;28;20172;-84
2022/05/02 05:45:48;;;;;;;4.50;2.23;;;;;;;16.40;57.36;99138.28;4975415;28;20195;-84
2022/05/02 05:48:51;;;;;;;3.63;2.23;;;;;;;16.65;57.26;99139.91;5039503;27;20255;-84
2022/05/02 05:51:22;;;;;;;5.07;2.53;;;;;;;16.81;57.65;99129.84;5051581;28;20168;-84
2022/05/02 05:53:53;;;;;;;5.80;2.57;;;;;;;16.96;57.34;99133.91;5048914;27;20305;-83
2022/05/02 05:57:13;;;;;;;3.43;2.00;;;;;;;17.03;56.32;99129.84;5031299;28;20184;-84
2022/05/02 06:00:12;;;;;;;4.57;2.10;;;;;;;16.98;57.42;99118.78;5027488;28;20199;-86
2022/05/02 06:03:29;;;;;;;5.57;2.50;;;;;;;17.02;57.43;99125.50;5068184;27;20210;-83
2022/05/02 06:05:54;;;;;;;5.67;2.20;;;;;;;17.31;57.00;99117.88;5051637;27;20188;-83
2022/05/02 06:08:22;;;;;;;4.63;1.90;;;;;;;17.33;56.30;99122.09;5051220;28;20173;-83
2022/05/02 06:10:50;;;;;;;3.60;1.90;;;;;;;17.09;53.58;99124.88;5050545;28;20182;-86
2022/05/02 06:13:18;;;;;;;4.03;2.10;;;;;;;17.16;54.12;99127.91;5051705;28;20205;-84
2022/05/02 06:18:35;;;;;;;7.03;1.80;;;;;;;17.73;53.21;99115.28;5051355;28;20193;-85
2022/05/02 06:21:05;;;;;;;3.73;1.77;;;;;;;17.73;51.66;99117.09;5051548;28;20261;-85
2022/05/02 06:23:47;;;;;;;3.03;1.60;;;;;;;18.16;51.57;99122.34;5051084;28;20185;-84
2022/05/02 06:26:14;;;;;;;4.93;1.80;;;;;;;18.52;49.62;99126.38;5050778;28;20182;-83
2022/05/02 06:28:42;;;;;;;7.33;2.03;;;;;;;19.06;48.23;99129.56;5050301;28;20328;-84
2022/05/02 06:31:28;;;;;;;6.63;2.10;;;;;;;19.77;46.12;99123.22;5051162;28;20189;-85
2022/05/02 06:33:57;;;;;;;3.97;1.83;;;;;;;20.12;43.83;99126.16;5050644;28;20200;-85
2022/05/02 06:36:50;;;;;;;3.10;1.90;;;;;;;20.50;44.19;99127.13;5050877;28;20172;-85
2022/05/02 06:39:43;;;;;;;4.17;2.30;;;;;;;20.91;42.89;99133.91;5049370;28;20188;-86
2022/05/02 06:42:37;;;;;;;3.20;1.63;;;;;;;21.10;41.96;99140.00;5031102;28;20217;-85
2022/05/02 06:45:24;;;;;;;5.37;2.23;;;;;;;21.51;41.43;99132.50;5035675;28;20644;-85
2022/05/02 06:48:14;;;;;;;4.53;2.27;;;;;;;21.52;41.76;99134.19;5031446;28;20178;-84
2022/05/02 06:50:43;;;;;;;3.77;1.80;;;;;;;21.52;41.32;99131.50;5034635;28;20178;-86
2022/05/02 06:53:38;;;;;;;3.40;1.90;;;;;;;21.64;42.80;99120.50;5041727;28;20740;-85
2022/05/02 06:56:21;;;;;;;2.70;2.00;;;;;;;21.95;41.72;99121.00;5030377;28;20174;-85
2022/05/02 06:59:23;;;;;;;6.13;1.90;;;;;;;22.16;40.99;99118.84;5031713;28;20181;-86
2022/05/02 07:01:51;;;;;;;3.17;2.10;;;;;;;22.06;40.53;99118.09;5049880;28;20201;-85
2022/05/02 07:04:38;;;;;;;5.23;1.60;;;;;;;21.99;41.22;99117.88;5031566;28;20253;-85
2022/05/02 07:07:40;;;;;;;3.23;1.57;;;;;;;22.20;41.52;99122.03;5032829;28;20661;-85
2022/05/02 07:10:21;;;;;;;4.07;2.33;;;;;;;21.99;40.54;99122.34;5031417;28;20212;-86
2022/05/02 07:13:16;;;;;;;3.00;1.70;;;;;;;22.07;40.94;99126.94;5042627;28;20201;-86
2022/05/02 07:15:50;;;;;;;3.73;1.90;;;;;;;21.63;40.29;99115.28;5043927;28;20197;-85
2022/05/02 07:18:51;;;;;;;12.67;2.37;;;;;;;21.80;41.33;99109.16;5030365;28;20217;-84
2022/05/02 07:21:37;;;;;;;6.43;1.70;;;;;;;21.78;39.94;99111.09;5000092;28;20201;-85
2022/05/02 07:24:20;;;;;;;7.33;1.63;;;;;;;21.99;40.63;99098.34;5039051;28;20264;-85
2022/05/02 07:26:54;;;;;;;3.97;1.67;;;;;;;21.96;39.69;99093.28;5037376;28;20193;-84
2022/05/02 07:29:22;;;;;;;1.87;1.07;;;;;;;22.27;40.94;99091.91;5052551;28;20174;-85
2022/05/02 07:31:49;;;;;;;2.33;1.23;;;;;;;22.55;38.38;99090.78;5053696;28;20185;-85
2022/05/02 07:34:15;;;;;;;6.00;1.43;;;;;;;22.46;38.57;99089.03;5033981;28;20206;-88
2022/05/02 07:36:43;;;;;;;3.83;1.57;;;;;;;22.29;39.51;99103.28;5039093;28;20186;-86
2022/05/02 07:39:14;;;;;;;2.53;1.23;;;;;;;22.29;39.69;99083.75;5034998;28;20182;-89
2022/05/02 07:41:43;;;;;;;2.27;1.13;;;;;;;21.82;40.06;99092.00;5037620;28;20201;-85
2022/05/02 07:44:12;;;;;;;4.50;1.33;;;;;;;21.74;40.99;99088.41;5035287;28;20190;-85
2022/05/02 07:46:45;;;;;;;2.40;1.23;;;;;;;21.48;41.34;99093.66;5032280;28;20280;-85
2022/05/02 07:49:14;;;;;;;4.70;1.70;;;;;;;21.76;40.00;99089.94;5037290;28;20186;-87
2022/05/02 07:51:50;;;;;;;3.83;1.37;;;;;;;21.95;39.69;99080.97;5043594;28;20207;-86
2022/05/02 07:54:20;;;;;;;1.43;1.00;;;;;;;21.94;39.76;99065.94;5037673;28;20652;-86
2022/05/02 07:56:50;;;;;;;1.93;1.03;;;;;;;21.92;38.90;99067.91;5042791;28;20257;-85
2022/05/02 07:59:19;;;;;;;2.43;0.87;;;;;;;21.98;39.03;99069.97;5052915;28;20214;-86
2022/05/02 08:01:44;;;;;;;2.80;1.50;;;;;;;22.08;38.95;99067.22;5052801;28;20197;-86
2022/05/02 08:04:14;;;;;;;2.33;0.90;;;;;;;22.07;40.08;99058.38;5053481;28;20166;-85
2022/05/02 08:06:58;;;;;;;2.30;1.10;;;;;;;21.83;39.48;99061.63;5053112;28;20511;-86
2022/05/02 08:09:48;;;;;;;2.10;0.97;;;;;;;22.01;39.38;99051.00;5050253;28;20190;-86
2022/05/02 08:12:37;;;;;;;6.07;1.37;;;;;;;21.68;40.35;99044.50;5032974;28;20575;-85
2022/05/02 08:15:25;;;;;;;3.53;1.80;;;;;;;21.74;41.06;99040.38;5038974;28;20252;-84
2022/05/02 08:18:15;;;;;;;3.60;1.53;;;;;;;21.90;39.95;99032.56;5034597;28;20182;-85
2022/05/02 08:20:51;;;;;;;2.63;1.10;;;;;;;21.44;41.48;99033.59;5042005;28;20549;-84
2022/05/02 08:29:48;;;;;;;4.27;1.77;;;;;;;21.24;41.92;99019.56;5032595;28;20178;-85
2022/05/02 08:32:32;;;;;;;3.07;1.50;;;;;;;21.19;41.98;99016.50;5038893;28;20186;-86
2022/05/02 08:35:08;;;;;;;3.43;1.53;;;;;;;21.45;41.21;99011.28;5051267;28;20173;-87
2022/05/02 08:37:49;;;;;;;3.23;1.53;;;;;;;21.46;40.20;98996.13;5050902;28;20213;-85
2022/05/02 08:40:26;;;;;;;3.23;1.43;;;;;;;21.52;40.35;98991.00;5051233;28;20213;-86
2022/05/02 08:43:22;;;;;;;6.17;1.60;;;;;;;21.38;42.22;98989.69;5051040;28;20178;-85
2022/05/02 08:46:30;;;;;;;3.83;1.57;;;;;;;21.57;43.58;98977.19;5050943;28;20273;-85
2022/05/02 08:52:19;;;;;;;1.67;1.00;;;;;;;21.91;39.90;98970.16;5050781;28;20253;-87
2022/05/02 08:55:23;;;;;;;1.77;1.10;;;;;;;22.13;39.51;98971.47;5051356;28;20205;-86
2022/05/02 08:58:01;;;;;;;1.73;1.00;;;;;;;22.10;39.19;98966.44;5051327;28;20189;-84
2022/05/02 09:01:09;;;;;;;2.20;0.90;;;;;;;22.25;38.55;98968.38;5051400;28;20180;-85
2022/05/02 09:04:12;;;;;;;2.20;1.00;;;;;;;22.34;38.92;98971.94;5050909;28;20209;-85
2022/05/02 09:06:52;;;;;;;4.77;2.13;;;;;;;22.67;38.08;98964.97;5052468;28;20178;-86
2022/05/02 09:09:49;;;;;;;2.00;1.00;;;;;;;22.63;37.52;98969.78;5051911;28;20169;-86
2022/05/02 09:12:35;;;;;;;39.77;16.03;;;;;;;22.63;38.29;98962.59;5052395;28;20660;-85
2022/05/02 09:15:17;;;;;;;4.17;2.20;;;;;;;22.86;37.97;98962.84;5051778;28;20171;-86
2022/05/02 09:17:42;;;;;;;1.83;0.93;;;;;;;22.68;38.00;98963.94;5052273;28;20178;-85
2022/05/02 09:20:17;;;;;;;8.83;1.73;;;;;;;22.78;37.05;98946.78;5050752;28;20575;-85
2022/05/02 09:23:04;;;;;;;2.60;1.17;;;;;;;23.06;38.35;98958.06;5052186;28;20173;-86
2022/05/02 09:25:45;;;;;;;14.90;5.77;;;;;;;23.42;37.93;98953.31;5051849;28;20254;-83
2022/05/02 09:28:21;;;;;;;2.40;1.03;;;;;;;23.41;37.13;98967.66;5051783;28;20271;-87
2022/05/02 09:31:20;;;;;;;6.03;2.23;;;;;;;23.54;36.93;98962.66;5052038;28;20691;-86
2022/05/02 09:34:19;;;;;;;20.87;10.07;;;;;;;23.58;36.41;98964.84;5051943;28;20605;-85
2022/05/02 09:37:04;;;;;;;14.07;6.80;;;;;;;23.61;37.67;98964.50;5052012;28;20174;-86
2022/05/02 09:39:57;;;;;;;2.43;1.00;;;;;;;23.06;37.33;98969.56;5051312;28;20632;-85
2022/05/02 09:42:50;;;;;;;3.57;1.57;;;;;;;22.96;38.18;98960.03;5053849;28;20208;-86
2022/05/02 09:51:42;;;;;;;3.07;1.10;;;;;;;22.81;38.15;98950.97;5052083;28;20170;-86
2022/05/02 09:57:38;;;;;;;3.07;1.20;;;;;;;22.51;38.75;98963.03;5051197;28;20700;-86
2022/05/02 10:02:52;;;;;;;3.50;0.87;;;;;;;22.38;38.27;98963.44;5051476;28;20201;-87
2022/05/02 10:05:25;;;;;;;1.60;0.83;;;;;;;22.32;38.20;98961.44;5050598;28;20587;-88
2022/05/02 10:08:04;;;;;;;3.23;1.10;;;;;;;22.12;38.38;98957.28;5051293;28;20154;-85
2022/05/02 10:10:46;;;;;;;2.37;0.90;;;;;;;22.20;40.64;98953.81;5051475;28;20162;-85
2022/05/02 10:13:37;;;;;;;1.70;0.80;;;;;;;22.41;38.65;98951.59;5050805;28;20556;-86
2022/05/02 10:16:16;;;;;;;1.57;1.00;;;;;;;22.58;37.94;98954.22;5049924;28;20174;-85
2022/05/02 10:19:01;;;;;;;2.03;1.00;;;;;;;22.59;38.13;98939.00;5051084;28;20234;-85
2022/05/02 10:21:33;;;;;;;2.43;0.97;;;;;;;22.40;38.92;98934.75;5049866;28;20210;-86
2022/05/02 10:24:21;;;;;;;2.30;0.80;;;;;;;22.58;39.03;98935.50;5051059;28;20159;-86
2022/05/02 10:27:01;;;;;;;3.63;1.17;;;;;;;22.68;38.31;98924.72;5050665;28;20178;-86
2022/05/02 10:30:00;;;;;;;2.27;0.80;;;;;;;22.63;37.81;98909.19;5049820;28;20188;-86
2022/05/02 10:32:43;;;;;;;2.50;1.10;;;;;;;22.42;38.90;98922.06;5049481;28;20178;-86
2022/05/02 10:35:15;;;;;;;2.17;1.00;;;;;;;22.68;38.64;98902.50;5049606;28;20229;-85
2022/05/02 10:37:42;;;;;;;2.00;1.10;;;;;;;22.53;38.88;98904.94;5050811;28;20174;-86
2022/05/02 10:40:13;;;;;;;2.93;1.53;;;;;;;22.66;39.21;98897.31;5050464;28;20182;-86
2022/05/02 10:43:09;;;;;;;4.63;1.50;;;;;;;22.47;38.71;98897.56;5050738;28;20177;-85
2022/05/02 10:45:36;;;;;;;3.57;1.30;;;;;;;22.25;39.57;98896.28;5054710;28;20194;-85
2022/05/02 10:48:48;;;;;;;3.80;1.23;;;;;;;22.44;39.37;98890.69;5050409;28;20281;-86
2022/05/02 10:51:37;;;;;;;2.13;1.10;;;;;;;22.47;39.75;98892.22;5010052;28;20196;-86
2022/05/02 10:54:32;;;;;;;3.57;1.13;;;;;;;22.35;40.02;98907.66;5053128;28;20218;-85
2022/05/02 10:57:10;;;;;;;1.97;1.07;;;;;;;22.20;39.17;98898.59;5049409;28;20174;-86
2022/05/02 10:59:44;;;;;;;9.70;1.03;;;;;;;22.35;38.47;98897.00;5050388;28;20616;-86
2022/05/02 11:02:21;;;;;;;3.13;1.20;;;;;;;22.21;38.26;98894.94;5050096;28;20220;-86
2022/05/02 11:05:05;;;;;;;3.10;1.20;;;;;;;22.15;37.74;98892.91;5050279;28;20158;-85
2022/05/02 11:07:34;;;;;;;3.33;1.00;;;;;;;22.18;37.10;98892.59;5049303;28;20173;-84
2022/05/02 11:10:14;;;;;;;2.63;1.33;;;;;;;22.37;38.43;98892.34;5050438;28;20712;-85
2022/05/02 11:13:07;;;;;;;2.37;1.10;;;;;;;22.69;37.91;98885.47;5045404;28;20693;-85
2022/05/02 11:15:44;;;;;;;2.97;1.10;;;;;;;22.87;37.13;98876.31;5026664;28;20609;-84
2022/05/02 11:20:41;;;;;;;2.93;1.23;;;;;;;23.07;37.93;98884.88;5040363;28;20197;-86
2022/05/02 11:21:06;;;;;;;4.03;1.50;;;;;;;23.22;38.25;98884.03;5029152;28;20274;-85
2022/05/02 11:23:50;;;;;;;4.70;1.47;;;;;;;23.18;38.01;98879.19;5029097;28;20174;-84
2022/05/02 11:26:48;;;;;;;2.67;1.30;;;;;;;23.07;38.53;98884.88;5029029;28;20174;-84
2022/05/02 11:29:31;;;;;;;2.00;1.10;;;;;;;22.78;37.44;98884.47;5030249;28;20501;-84
2022/05/02 11:32:00;;;;;;;2.43;1.03;;;;;;;22.67;38.71;98868.78;5029513;28;20591;-85
2022/05/02 11:34:48;;;;;;;3.07;1.27;;;;;;;22.83;38.42;98871.47;5030157;28;20213;-84
2022/05/02 11:37:49;;;;;;;1.27;0.80;;;;;;;22.92;38.19;98871.31;5030266;28;20167;-84
2022/05/02 11:40:17;;;;;;;1.80;0.90;;;;;;;23.18;37.96;98860.47;5030216;28;20589;-85
2022/05/02 11:42:46;;;;;;;7.87;1.27;;;;;;;23.22;37.26;98854.63;5029893;28;20706;-85
2022/05/02 11:45:13;;;;;;;3.10;1.20;;;;;;;23.12;37.46;98851.28;5030134;28;20655;-85
2022/05/02 11:48:00;;;;;;;4.67;1.37;;;;;;;23.04;36.84;98853.09;5029839;28;20190;-85
2022/05/02 11:50:27;;;;;;;1.90;1.10;;;;;;;22.94;37.03;98849.75;5029833;28;20322;-84
2022/05/02 11:52:55;;;;;;;2.47;1.07;;;;;;;22.75;37.49;98842.03;5029713;28;20653;-84
2022/05/02 11:55:29;;;;;;;2.53;1.30;;;;;;;22.86;38.52;98842.56;5029718;28;20534;-84
2022/05/02 11:58:08;;;;;;;4.63;1.10;;;;;;;22.93;37.33;98848.09;5030017;28;20182;-84
2022/05/02 12:00:35;;;;;;;1.70;0.67;;;;;;;22.96;37.65;98845.06;5029961;28;20175;-85
2022/05/02 12:03:11;;;;;;;3.07;1.10;;;;;;;22.82;37.45;98848.41;5029552;28;20231;-83
2022/05/02 12:05:41;;;;;;;2.20;1.00;;;;;;;22.81;38.29;98842.22;5028716;28;20269;-84
2022/05/02 12:08:09;;;;;;;2.00;0.90;;;;;;;22.95;37.74;98833.56;5028665;28;20197;-84
2022/05/02 12:10:45;;;;;;;5.50;0.97;;;;;;;22.83;38.23;98828.69;5029570;28;20174;-83
2022/05/02 12:13:15;;;;;;;2.10;0.90;;;;;;;22.81;37.54;98820.00;5031859;28;20238;-84
2022/05/02 12:15:53;;;;;;;2.60;1.07;;;;;;;23.06;37.96;98824.38;5031943;28;20179;-84
2022/05/02 12:18:19;;;;;;;2.10;0.90;;;;;;;23.06;36.38;98819.03;5033340;28;20179;-84
2022/05/02 12:20:53;;;;;;;5.03;1.10;;;;;;;22.45;37.21;98824.75;5031848;28;20648;-84
2022/05/02 12:23:20;;;;;;;2.50;0.97;;;;;;;22.56;37.39;98827.13;5033091;28;20531;-83
2022/05/02 12:25:51;;;;;;;2.53;0.97;;;;;;;22.59;36.77;98826.78;5031769;28;20690;-85
2022/05/02 12:28:18;;;;;;;1.27;0.60;;;;;;;22.71;36.56;98824.69;5032787;28;20171;-84
2022/05/02 12:30:50;;;;;;;3.37;0.93;;;;;;;22.72;36.53;98811.13;5032896;28;20281;-84
2022/05/02 12:33:19;;;;;;;3.57;1.13;;;;;;;22.81;36.05;98820.00;5033050;28;20276;-85
2022/05/02 12:35:45;;;;;;;1.77;1.00;;;;;;;22.85;36.33;98818.69;5032611;28;20167;-85